Home > Products > Valid Products > TAF

000
FTUS43 KGLD 010530
TAFGLD
TAF
KGLD 010530Z 0106/0206 VRB05KT P6SM BKN150
     FM011000 32007KT P6SM SCT150
     FM011500 01012KT P6SM SCT070
     FM012100 08009KT P6SM SCT080 BKN250
     FM020200 33015G25KT P6SM VCTS BKN050CB=



000
FTUS43 KGLD 010530
TAFMCK
TAF
KMCK 010530Z 0106/0206 VRB05KT P6SM BKN150
     FM011000 VRB05KT 6SM BR SCT007 SCT150
     FM011500 34010KT P6SM SCT070
     FM012200 03008KT P6SM SCT080 BKN250
     FM020400 33010G20KT P6SM VCTS BKN050CB=



000
FTUS43 KGLD 010530
TAFMCK
TAF
KMCK 010530Z 0106/0206 VRB05KT P6SM BKN150
     FM011000 VRB05KT 6SM BR SCT007 SCT150
     FM011500 34010KT P6SM SCT070
     FM012200 03008KT P6SM SCT080 BKN250
     FM020400 33010G20KT P6SM VCTS BKN050CB=



000
FTUS43 KGLD 302321
TAFMCK
TAF
KMCK 302321Z 0100/0124 VRB05KT P6SM BKN100
     FM011000 32006KT 6SM BR SCT015 SCT100
     FM011500 35009KT P6SM BKN250=



000
FTUS43 KGLD 302321
TAFGLD
TAF
KGLD 302321Z 0100/0124 VRB05KT P6SM BKN100
     FM010900 33007KT P6SM SCT100
     FM011500 01011KT P6SM SCT070 BKN250=



000
FTUS43 KGLD 302321
TAFMCK
TAF
KMCK 302321Z 0100/0124 VRB05KT P6SM BKN100
     FM011000 32006KT 6SM BR SCT015 SCT100
     FM011500 35009KT P6SM BKN250=



000
FTUS43 KGLD 301723
TAFGLD
TAF
KGLD 301723Z 3018/0118 18010KT P6SM SKC
     FM302300 VRB04KT P6SM SCT150=



000
FTUS43 KGLD 301723
TAFMCK
TAF
KMCK 301723Z 3018/0118 17010KT P6SM SKC
      TEMPO 3019/3022 22010G20KT
     FM302200 VRB05KT P6SM SKC
     FM010600 VRB04KT P6SM SCT030 BKN100
     FM011500 30010KT P6SM BKN150=



000
FTUS43 KGLD 301723
TAFMCK
TAF
KMCK 301723Z 3018/0118 17010KT P6SM SKC
      TEMPO 3019/3022 22010G20KT
     FM302200 VRB05KT P6SM SKC
     FM010600 VRB04KT P6SM SCT030 BKN100
     FM011500 30010KT P6SM BKN150=



000
FTUS43 KGLD 301120
TAFMCK
TAF
KMCK 301120Z 3012/0112 24010KT P6SM FEW100
     FM301500 23011KT P6SM SKC
     FM301800 21010G20KT P6SM SKC
     FM302200 19006KT P6SM SKC
     FM010400 VRB05KT P6SM BKN150=



000
FTUS43 KGLD 301120
TAFGLD
TAF
KGLD 301120Z 3012/0112 24006KT P6SM FEW090
     FM301500 VRB05KT P6SM SKC
     FM010500 VRB05KT P6SM BKN150=



000
FTUS43 KGLD 301120
TAFMCK
TAF
KMCK 301120Z 3012/0112 24010KT P6SM FEW100
     FM301500 23011KT P6SM SKC
     FM301800 21010G20KT P6SM SKC
     FM302200 19006KT P6SM SKC
     FM010400 VRB05KT P6SM BKN150=



000
FTUS43 KGLD 300532
TAFGLD
TAF
KGLD 300532Z 3006/0106 18011KT P6SM SKC
     FM301100 25006KT 6SM BR FEW015
     FM301500 27008KT P6SM SKC
     FM302000 VRB05KT P6SM SKC=



000
FTUS43 KGLD 300532
TAFMCK
TAF
KMCK 300532Z 3006/0106 13011KT P6SM BKN090
     FM301000 22010KT P6SM SKC
     FM302200 VRB05KT P6SM SKC=



000
FTUS43 KGLD 300532
TAFMCK
TAF
KMCK 300532Z 3006/0106 13011KT P6SM BKN090
     FM301000 22010KT P6SM SKC
     FM302200 VRB05KT P6SM SKC=



000
FTUS43 KGLD 300349 AAB
TAFGLD
TAF AMD
KGLD 300349Z 3004/3024 18012KT P6SM VCSH BKN080
     FM301000 23009KT 6SM BR SCT040
     FM301300 25006KT P6SM SCT040
     FM301900 20005KT P6SM FEW200=



000
FTUS43 KGLD 300155 AAA
TAFMCK
TAF AMD
KMCK 300155Z 3002/3024 14016G26KT P6SM SCT050 BKN100
     FM300400 13013G23KT 5SM -TSRA BKN035CB
      TEMPO 3004/3005 23020G45KT 1SM TSRA BLDU
     FM300600 22012KT P6SM VCSH SCT030 BKN090
     FM300800 22011KT P6SM BKN060=



000
FTUS43 KGLD 300049 AAA
TAFGLD
TAF AMD
KGLD 300049Z 3001/3024 16025G35KT 6SM -TSRA BKN045CB
      TEMPO 3001/3002 VRB30G50KT 1SM +TSRA BKN030CB
     FM300400 16020G30KT 4SM -TSRA BKN035CB
     FM300600 23012KT P6SM -SHRA SCT030 BKN080
     FM301000 23009KT 6SM BR SCT040
     FM301300 25006KT P6SM SCT040
     FM301900 20005KT P6SM FEW200=



000
FTUS43 KGLD 292320
TAFGLD
TAF
KGLD 292320Z 3000/3024 16025G35KT P6SM SCT040 BKN080
     FM300200 16020G30KT 4SM -TSRA BKN035CB
     FM300600 23012KT P6SM -SHRA SCT030 BKN080
     FM301000 23009KT 6SM BR SCT040
     FM301300 25006KT P6SM SCT040
     FM301900 20005KT P6SM FEW200=



000
FTUS43 KGLD 292320
TAFMCK
TAF
KMCK 292320Z 3000/3024 14016G26KT P6SM SCT050 BKN100
     FM300300 13013G23KT 5SM -TSRA BKN035CB
     FM300900 16010KT P6SM VCSH SCT030 BKN090
     FM301100 20005KT 6SM BR BKN060
     FM301500 22010KT P6SM SCT030 BKN060
     FM302000 20006KT P6SM FEW030=



000
FTUS43 KGLD 292320
TAFMCK
TAF
KMCK 292320Z 3000/3024 14016G26KT P6SM SCT050 BKN100
     FM300300 13013G23KT 5SM -TSRA BKN035CB
     FM300900 16010KT P6SM VCSH SCT030 BKN090
     FM301100 20005KT 6SM BR BKN060
     FM301500 22010KT P6SM SCT030 BKN060
     FM302000 20006KT P6SM FEW030=



000
FTUS43 KGLD 291720
TAFMCK
TAF
KMCK 291720Z 2918/3018 15016G26KT P6SM SCT080 BKN150
     FM300000 14016G26KT P6SM SCT050 BKN100
     FM300300 13013G23KT 5SM -TSRA BKN035CB
     FM300900 16010KT P6SM VCSH SCT030 BKN090
     FM301500 22010KT P6SM SCT030 BKN060=



000
FTUS43 KGLD 291720
TAFGLD
TAF
KGLD 291720Z 2918/3018 17028G38KT P6SM SCT080 BKN200
     FM292300 16025G38KT P6SM VCTS SCT040CB BKN080
     FM300100 16020G30KT 5SM -TSRA BKN035CB
     FM300600 23012KT P6SM VCSH SCT030 BKN080
     FM301300 25006KT P6SM SCT040=



000
FTUS43 KGLD 291720
TAFMCK
TAF
KMCK 291720Z 2918/3018 15016G26KT P6SM SCT080 BKN150
     FM300000 14016G26KT P6SM SCT050 BKN100
     FM300300 13013G23KT 5SM -TSRA BKN035CB
     FM300900 16010KT P6SM VCSH SCT030 BKN090
     FM301500 22010KT P6SM SCT030 BKN060=



000
FTUS43 KGLD 291132
TAFGLD
TAF
KGLD 291132Z 2912/3012 16012KT P6SM SCT080
     FM291500 17017G25KT P6SM SCT100
     FM291800 17026G39KT P6SM SCT080 BKN200
     FM292300 16025G38KT P6SM VCTS SCT040CB BKN080
     FM300100 16020G30KT 5SM -TSRA BKN035CB
     FM300600 23012KT P6SM SCT030 BKN080=



000
FTUS43 KGLD 291132
TAFMCK
TAF
KMCK 291132Z 2912/3012 16010KT P6SM SCT100
     FM291700 15019G27KT P6SM SCT080 BKN150
     FM300000 14016G24KT P6SM SCT050 BKN100
     FM300300 13015G23KT 5SM -TSRA BKN035CB
     FM300900 16010KT P6SM SCT030 BKN090=



000
FTUS43 KGLD 291132
TAFMCK
TAF
KMCK 291132Z 2912/3012 16010KT P6SM SCT100
     FM291700 15019G27KT P6SM SCT080 BKN150
     FM300000 14016G24KT P6SM SCT050 BKN100
     FM300300 13015G23KT 5SM -TSRA BKN035CB
     FM300900 16010KT P6SM SCT030 BKN090=



000
FTUS43 KGLD 290548
TAFGLD
TAF
KGLD 290548Z 2906/3006 15011KT P6SM FEW110
     FM291500 17017G30KT P6SM SCT100 PROB30 2921/2924 -TSRA SCT060CB
      BKN120
     FM300000 16022G33KT P6SM -TSRA SCT030 BKN060CB=



000
FTUS43 KGLD 290548
TAFMCK
TAF
KMCK 290548Z 2906/3006 15007KT P6SM FEW080 SCT110
     FM291600 16016G28KT P6SM SCT100
     FM292000 16022G34KT P6SM SCT060 PROB30 3002/3006 -TSRA
      BKN060CB=



000
FTUS43 KGLD 290548
TAFMCK
TAF
KMCK 290548Z 2906/3006 15007KT P6SM FEW080 SCT110
     FM291600 16016G28KT P6SM SCT100
     FM292000 16022G34KT P6SM SCT060 PROB30 3002/3006 -TSRA
      BKN060CB=



000
FTUS43 KGLD 282352
TAFGLD
TAF
KGLD 282352Z 2900/2924 16016KT P6SM FEW080
     FM290900 17011KT P6SM FEW200
     FM291500 17017G30KT P6SM SCT100 PROB30 2921/2924 -TSRA SCT060CB
      BKN120=



000
FTUS43 KGLD 282352
TAFMCK
TAF
KMCK 282352Z 2900/2924 14010KT P6SM SKC
     FM291600 16016G28KT P6SM SCT100
     FM292000 16020G34KT P6SM SCT050 BKN120=



000
FTUS43 KGLD 282352
TAFMCK
TAF
KMCK 282352Z 2900/2924 14010KT P6SM SKC
     FM291600 16016G28KT P6SM SCT100
     FM292000 16020G34KT P6SM SCT050 BKN120=



000
FTUS43 KGLD 281720
TAFGLD
TAF
KGLD 281720Z 2818/2918 17022G32KT P6SM FEW050 SCT250
     FM290200 16015KT P6SM SCT060 SCT150
     FM291300 17020G30KT P6SM VCSH SCT060=



000
FTUS43 KGLD 281720
TAFMCK
TAF
KMCK 281720Z 2818/2918 17012KT P6SM SKC
     FM281930 16015G25KT P6SM FEW250
     FM290000 13010KT P6SM FEW070
     FM291500 16010G16KT P6SM FEW070=



000
FTUS43 KGLD 281720
TAFMCK
TAF
KMCK 281720Z 2818/2918 17012KT P6SM SKC
     FM281930 16015G25KT P6SM FEW250
     FM290000 13010KT P6SM FEW070
     FM291500 16010G16KT P6SM FEW070=



000
FTUS43 KGLD 281121
TAFMCK
TAF
KMCK 281121Z 2812/2912 14006KT P6SM SKC
     FM281500 17012KT P6SM SKC
     FM281900 16015G24KT P6SM FEW250
     FM290000 14010KT P6SM FEW070=



000
FTUS43 KGLD 281121
TAFGLD
TAF
KGLD 281121Z 2812/2912 16012KT P6SM SCT010
     FM281500 17022G31KT P6SM FEW250
     FM290100 16015KT P6SM SCT060 SCT150=



    US Dept of Commerce
    National Oceanic and Atmospheric Administration
    National Weather Service
    1325 East West Highway
    Silver Spring, MD 20910
    Page Author: NWS Internet Services Team
Disclaimer
Information Quality
Credits
Glossary
Privacy Policy
Freedom of Information Act (FOIA)
About Us
Career Opportunities